Time;durP1;ratioP1;P1;durP2;ratioP2;P2;SDS_P1;SDS_P2;PMS_P1;PMS_P2;Temp;Humidity;BMP_temperature;BMP_pressure;BME280_temperature;BME280_humidity;BME280_pressure;Samples;Min_cycle;Max_cycle;Signal;HPM_P1;HPM_P2
2023/09/19 00:00:43;;;;;;;14.73;8.10;;;;;;;18.56;59.04;100920.06;127129;1086;102220;-77
2023/09/19 00:03:31;;;;;;;16.67;8.60;;;;;;;18.54;58.81;100919.13;127142;1086;101996;-78
2023/09/19 00:06:00;;;;;;;16.95;8.45;;;;;;;18.50;58.79;100922.66;127176;1086;104187;-78
2023/09/19 00:08:29;;;;;;;19.83;8.77;;;;;;;18.49;59.25;100919.09;127182;1086;101748;-78
2023/09/19 00:11:04;;;;;;;14.57;8.40;;;;;;;18.46;59.23;100916.39;127196;1086;104197;-79
2023/09/19 00:13:33;;;;;;;17.97;9.07;;;;;;;18.43;59.52;100926.12;126937;1085;102067;-78
2023/09/19 00:16:08;;;;;;;18.57;9.20;;;;;;;18.40;59.40;100936.71;126986;1086;104257;-78
2023/09/19 00:18:36;;;;;;;19.23;8.63;;;;;;;18.35;59.63;100926.03;126972;1086;104168;-77
2023/09/19 00:21:06;;;;;;;18.30;8.77;;;;;;;18.32;59.69;100923.34;127028;1086;104225;-78
2023/09/19 00:23:34;;;;;;;17.43;8.87;;;;;;;18.29;60.07;100931.28;127154;1086;102308;-78
2023/09/19 00:26:03;;;;;;;16.40;8.90;;;;;;;18.25;60.18;100935.68;127038;1086;104196;-77
2023/09/19 00:28:32;;;;;;;16.03;8.47;;;;;;;18.24;60.25;100931.23;126981;1086;104162;-77
2023/09/19 00:31:01;;;;;;;15.40;8.40;;;;;;;18.23;60.22;100925.90;126961;1086;104161;-77
2023/09/19 00:33:30;;;;;;;18.30;8.77;;;;;;;18.20;60.51;100933.83;127017;1086;102540;-78
2023/09/19 00:35:59;;;;;;;16.23;8.67;;;;;;;18.18;60.31;100930.28;127069;1086;102066;-77
2023/09/19 00:38:28;;;;;;;17.03;9.03;;;;;;;18.17;60.65;100932.05;127011;1086;104251;-78
2023/09/19 00:40:57;;;;;;;14.20;8.07;;;;;;;18.14;60.83;100930.24;127073;1086;104206;-78
2023/09/19 00:43:27;;;;;;;16.17;9.67;;;;;;;18.11;60.70;100922.23;127854;1086;102009;-78
2023/09/19 00:46:00;;;;;;;18.27;8.30;;;;;;;18.07;60.92;100916.88;127995;1086;104324;-78
2023/09/19 00:48:31;;;;;;;17.12;9.05;;;;;;;18.05;60.71;100913.32;127766;1086;102252;-78
2023/09/19 00:51:04;;;;;;;18.87;9.60;;;;;;;18.01;61.21;100914.14;127482;1086;104187;-78
2023/09/19 00:53:34;;;;;;;18.85;9.65;;;;;;;17.95;61.51;100913.21;127416;1086;101856;-78
2023/09/19 00:56:05;;;;;;;16.87;9.17;;;;;;;17.92;61.32;100909.61;127635;1086;102193;-78
2023/09/19 00:58:35;;;;;;;15.10;9.03;;;;;;;17.88;61.35;100916.65;127671;1086;102210;-78
2023/09/19 01:01:06;;;;;;;17.90;9.10;;;;;;;17.88;61.58;100911.34;127285;1086;104171;-78
2023/09/19 01:03:38;;;;;;;17.60;8.87;;;;;;;17.88;61.66;100907.77;127321;1085;104171;-78
2023/09/19 01:06:08;;;;;;;16.77;9.17;;;;;;;17.83;61.79;100907.72;127137;1085;104034;-77
2023/09/19 01:08:36;;;;;;;17.17;8.80;;;;;;;17.75;62.12;100915.58;127156;1085;104162;-77
2023/09/19 01:11:13;;;;;;;17.23;9.77;;;;;;;17.69;61.90;100919.92;127133;1085;104369;-77
2023/09/19 01:13:53;;;;;;;16.10;9.23;;;;;;;17.61;62.11;100919.83;127389;1086;101803;-77
2023/09/19 01:16:33;;;;;;;17.67;9.30;;;;;;;17.53;62.30;100916.15;127445;1086;104047;-77
2023/09/19 01:19:25;;;;;;;16.70;9.13;;;;;;;17.49;62.47;100911.69;127377;1086;102430;-78
2023/09/19 01:22:06;;;;;;;16.90;9.23;;;;;;;17.44;62.54;100908.97;127308;1086;104258;-78
2023/09/19 01:25:17;;;;;;;18.17;9.73;;;;;;;17.41;62.86;100907.16;127244;1086;101711;-78
2023/09/19 01:28:15;;;;;;;16.27;9.47;;;;;;;17.42;62.97;100908.95;127564;1086;104244;-78
2023/09/19 01:30:46;;;;;;;23.03;10.77;;;;;;;17.41;62.67;100915.12;127567;1085;102197;-78
2023/09/19 01:33:15;;;;;;;22.60;11.30;;;;;;;17.41;62.90;100906.28;127576;1086;101749;-78
2023/09/19 01:35:45;;;;;;;18.97;10.23;;;;;;;17.38;62.85;100914.19;127433;1086;104184;-78
2023/09/19 01:38:14;;;;;;;20.87;10.93;;;;;;;17.36;63.10;100910.64;127452;1086;102042;-78
2023/09/19 01:40:49;;;;;;;18.60;10.70;;;;;;;17.34;62.97;100912.35;127334;1086;101813;-78
2023/09/19 01:43:24;;;;;;;19.37;10.77;;;;;;;17.34;62.79;100900.00;127560;1086;101996;-78
2023/09/19 01:46:00;;;;;;;19.87;9.97;;;;;;;17.33;63.40;100897.33;127309;1085;101858;-78
2023/09/19 01:48:36;;;;;;;17.17;10.03;;;;;;;17.29;63.36;100893.72;127552;1086;104139;-77
2023/09/19 01:51:07;;;;;;;20.33;10.33;;;;;;;17.25;63.99;100894.56;127284;1085;102071;-78
2023/09/19 01:53:41;;;;;;;19.80;10.45;;;;;;;17.22;63.94;100903.36;127156;1086;104301;-78
2023/09/19 01:56:16;;;;;;;19.77;11.00;;;;;;;17.20;64.05;100894.50;127217;1086;104245;-79
2023/09/19 01:58:51;;;;;;;19.87;10.80;;;;;;;17.21;63.87;100901.56;127563;1086;104222;-79
2023/09/19 02:01:23;;;;;;;18.83;10.90;;;;;;;17.18;63.97;100898.86;127256;1086;102666;-77
2023/09/19 02:03:56;;;;;;;19.87;10.70;;;;;;;17.15;64.31;100898.81;127265;1086;101780;-78
2023/09/19 02:06:26;;;;;;;19.77;11.10;;;;;;;17.12;64.31;100890.81;127515;1086;102088;-78
2023/09/19 02:08:56;;;;;;;23.07;11.73;;;;;;;17.12;64.32;100887.28;127530;1083;101912;-78
2023/09/19 02:11:24;;;;;;;20.33;11.23;;;;;;;17.09;64.49;100885.47;127474;1086;102077;-78
2023/09/19 02:13:54;;;;;;;20.37;11.93;;;;;;;17.09;64.71;100876.63;127529;1086;102035;-78
2023/09/19 02:16:23;;;;;;;20.53;10.83;;;;;;;17.10;64.91;100873.12;127426;1086;101789;-78
2023/09/19 02:18:51;;;;;;;24.70;11.47;;;;;;;17.10;64.81;100870.47;127407;1086;102270;-78
2023/09/19 02:21:21;;;;;;;19.47;10.73;;;;;;;17.07;64.77;100861.58;127278;1085;104081;-78
2023/09/19 02:23:51;;;;;;;19.83;11.17;;;;;;;17.05;64.85;100854.50;127654;1086;104199;-78
2023/09/19 02:26:20;;;;;;;20.03;11.90;;;;;;;17.01;64.88;100855.30;127800;1086;104159;-78
2023/09/19 02:28:49;;;;;;;19.67;10.63;;;;;;;16.97;65.08;100848.16;127781;1086;101813;-78
2023/09/19 02:31:18;;;;;;;20.80;11.80;;;;;;;16.93;64.90;100841.94;127704;1086;104246;-78
2023/09/19 02:33:46;;;;;;;22.37;11.67;;;;;;;16.93;64.74;100843.70;127783;1086;104188;-78
2023/09/19 02:36:17;;;;;;;19.37;10.97;;;;;;;16.91;65.29;100843.68;127810;1085;101764;-79
2023/09/19 02:38:46;;;;;;;25.80;11.90;;;;;;;16.90;65.35;100847.19;127310;1086;101842;-79
2023/09/19 02:41:15;;;;;;;21.20;10.80;;;;;;;16.88;65.57;100835.68;127383;1086;104181;-79
2023/09/19 02:43:44;;;;;;;20.10;11.03;;;;;;;16.87;65.52;100848.02;127494;1086;117755;-78
2023/09/19 02:46:12;;;;;;;21.00;11.03;;;;;;;16.83;65.30;100842.65;127709;1086;102060;-78
2023/09/19 02:48:42;;;;;;;22.47;12.17;;;;;;;16.70;65.12;100841.54;128037;1085;102160;-78
2023/09/19 02:51:10;;;;;;;25.23;12.83;;;;;;;16.53;65.68;100842.17;127815;1086;102061;-78
2023/09/19 02:53:39;;;;;;;24.73;12.23;;;;;;;16.48;65.73;100825.29;127773;1086;104081;-79
2023/09/19 02:56:09;;;;;;;26.93;13.17;;;;;;;16.48;65.43;100835.88;127846;1086;104277;-78
2023/09/19 02:58:40;;;;;;;27.33;12.67;;;;;;;16.47;66.06;100826.17;127819;1085;104346;-78
2023/09/19 03:01:12;;;;;;;24.67;13.00;;;;;;;16.42;65.33;100827.83;127851;1086;102079;-78
2023/09/19 03:03:41;;;;;;;25.57;13.47;;;;;;;16.40;65.97;100829.58;127961;1086;103414;-78
2023/09/19 03:06:10;;;;;;;24.50;13.47;;;;;;;16.39;65.86;100833.08;127882;1085;101824;-78
2023/09/19 03:08:41;;;;;;;26.07;13.40;;;;;;;16.39;66.09;100822.48;127805;1086;104246;-78
2023/09/19 03:11:11;;;;;;;24.53;13.27;;;;;;;16.41;66.01;100825.16;127159;1086;102015;-79
2023/09/19 03:13:42;;;;;;;24.43;13.57;;;;;;;16.40;66.22;100828.70;126990;1086;102446;-79
2023/09/19 03:16:10;;;;;;;25.83;13.70;;;;;;;16.37;66.07;100829.52;127086;1085;104085;-79
2023/09/19 03:18:39;;;;;;;27.93;13.63;;;;;;;16.33;66.28;100832.97;127002;1086;102155;-78
2023/09/19 03:21:08;;;;;;;28.57;13.93;;;;;;;16.23;66.38;100831.05;127036;1086;101849;-79
2023/09/19 03:23:38;;;;;;;27.10;13.53;;;;;;;16.18;66.23;100829.20;126941;1086;101850;-80
2023/09/19 03:26:08;;;;;;;24.60;13.57;;;;;;;16.16;66.39;100824.75;127087;1086;104319;-80
2023/09/19 03:28:37;;;;;;;26.90;13.03;;;;;;;16.13;66.31;100822.05;126842;1086;104322;-81
2023/09/19 03:31:07;;;;;;;27.63;13.17;;;;;;;16.11;66.21;100827.32;127031;1086;102063;-81
2023/09/19 03:33:38;;;;;;;25.43;12.63;;;;;;;16.12;66.40;100826.44;126995;1086;102120;-80
2023/09/19 03:36:07;;;;;;;21.93;12.33;;;;;;;16.12;66.72;100837.02;126970;1086;102156;-81
2023/09/19 03:38:36;;;;;;;22.57;12.03;;;;;;;16.12;66.85;100837.02;127037;1086;101822;-79
2023/09/19 03:41:05;;;;;;;24.63;12.47;;;;;;;16.13;66.80;100836.17;127046;1086;104194;-80
2023/09/19 03:43:35;;;;;;;22.90;12.33;;;;;;;16.13;66.90;100830.00;127031;1086;102076;-81
2023/09/19 03:46:05;;;;;;;23.73;12.30;;;;;;;16.11;66.72;100827.32;127018;1086;101913;-80
2023/09/19 03:48:34;;;;;;;23.20;11.73;;;;;;;16.09;66.80;100818.44;127045;1086;102687;-81
2023/09/19 03:51:03;;;;;;;23.47;11.77;;;;;;;16.06;66.75;100823.67;127014;1086;101820;-80
2023/09/19 03:53:31;;;;;;;20.27;11.50;;;;;;;16.03;67.07;100823.61;127063;1086;101921;-83
2023/09/19 03:56:00;;;;;;;21.50;12.40;;;;;;;15.98;67.33;100820.00;127058;1086;102070;-80
2023/09/19 03:58:30;;;;;;;23.20;11.90;;;;;;;15.95;67.23;100815.53;127044;1086;104279;-83
2023/09/19 04:00:59;;;;;;;24.97;12.67;;;;;;;15.92;67.68;100810.18;127031;1086;104398;-81
2023/09/19 04:03:34;;;;;;;24.17;12.27;;;;;;;15.90;67.71;100816.33;127180;1086;102441;-79
2023/09/19 04:06:03;;;;;;;21.77;11.13;;;;;;;15.87;68.34;100805.69;127090;1086;102350;-81
2023/09/19 04:08:32;;;;;;;22.37;12.30;;;;;;;15.85;68.50;100812.68;127027;1086;102406;-80
2023/09/19 04:11:00;;;;;;;23.43;11.80;;;;;;;15.83;67.58;100809.13;127181;1086;104165;-81
2023/09/19 04:13:29;;;;;;;21.97;12.00;;;;;;;15.85;68.05;100813.59;127110;1086;104510;-78
2023/09/19 04:15:58;;;;;;;24.83;12.27;;;;;;;15.88;68.57;100812.73;127001;1086;101880;-78
2023/09/19 04:18:27;;;;;;;23.43;12.23;;;;;;;15.88;68.75;100816.30;128015;1085;101956;-78
2023/09/19 04:20:55;;;;;;;20.77;12.03;;;;;;;15.90;68.55;100817.20;126849;1086;102058;-80
2023/09/19 04:23:25;;;;;;;21.03;11.67;;;;;;;15.91;68.92;100819.00;127063;1086;102067;-78
2023/09/19 04:25:53;;;;;;;21.43;12.23;;;;;;;15.93;68.37;100817.27;127189;1085;104175;-81
2023/09/19 04:28:23;;;;;;;26.67;11.70;;;;;;;15.96;68.25;100819.09;127146;1086;104185;-78
2023/09/19 04:30:51;;;;;;;20.65;11.20;;;;;;;15.96;68.22;100822.62;127052;1086;104200;-79
2023/09/19 04:33:20;;;;;;;22.93;11.17;;;;;;;15.97;68.94;100823.50;126878;1086;102099;-77
2023/09/19 04:35:51;;;;;;;20.80;11.77;;;;;;;16.02;68.94;100827.15;126823;1086;102297;-78
2023/09/19 04:38:20;;;;;;;19.43;10.20;;;;;;;16.05;68.46;100821.00;126745;1086;101948;-77
2023/09/19 04:40:49;;;;;;;20.77;10.93;;;;;;;16.09;69.27;100828.14;126827;1086;101832;-80
2023/09/19 04:43:22;;;;;;;20.37;11.50;;;;;;;16.15;69.12;100825.61;126816;1086;104183;-78
2023/09/19 04:45:51;;;;;;;21.60;11.37;;;;;;;16.20;68.87;100829.22;126903;1086;104251;-77
2023/09/19 04:48:21;;;;;;;22.37;11.17;;;;;;;16.24;68.84;100831.07;126790;1086;103116;-79
2023/09/19 04:50:53;;;;;;;21.60;10.73;;;;;;;16.29;69.30;100825.86;127135;1085;104178;-79
2023/09/19 04:53:24;;;;;;;23.37;10.87;;;;;;;16.33;69.21;100830.32;126935;1086;104171;-77
2023/09/19 04:55:55;;;;;;;20.43;11.40;;;;;;;16.37;68.54;100840.11;127149;1086;104219;-80
2023/09/19 04:58:24;;;;;;;20.17;11.17;;;;;;;16.39;69.57;100829.55;127738;1086;102755;-79
2023/09/19 05:00:53;;;;;;;23.37;11.80;;;;;;;16.42;69.02;100832.25;126942;1086;104277;-77
2023/09/19 05:03:22;;;;;;;22.17;10.77;;;;;;;16.46;69.35;100824.38;126735;1086;101874;-79
2023/09/19 05:05:51;;;;;;;20.93;10.87;;;;;;;16.52;69.64;100826.25;127084;1086;104191;-79
2023/09/19 05:08:22;;;;;;;20.53;11.33;;;;;;;16.57;69.48;100826.33;126868;1086;104196;-79
2023/09/19 05:10:50;;;;;;;21.40;11.10;;;;;;;16.64;69.15;100825.55;127010;1086;104212;-80
2023/09/19 05:13:19;;;;;;;22.57;11.53;;;;;;;16.71;69.58;100825.66;126946;1085;104216;-80
2023/09/19 05:15:48;;;;;;;20.25;10.20;;;;;;;16.80;69.67;100826.70;127003;1086;102094;-78
2023/09/19 05:18:17;;;;;;;21.73;10.43;;;;;;;16.85;69.62;100833.83;127107;1085;103174;-80
2023/09/19 05:20:46;;;;;;;22.35;11.20;;;;;;;16.90;69.56;100836.59;126708;1086;101882;-79
2023/09/19 05:23:15;;;;;;;22.43;11.33;;;;;;;16.96;69.23;100835.80;126716;1086;104166;-77
2023/09/19 05:25:44;;;;;;;23.93;11.13;;;;;;;17.01;69.24;100827.02;126584;1086;102132;-77
2023/09/19 05:28:14;;;;;;;20.47;10.93;;;;;;;17.09;69.72;100829.78;126823;1086;104034;-76
2023/09/19 05:30:45;;;;;;;19.80;10.17;;;;;;;17.13;69.25;100839.58;126639;1086;104209;-78
2023/09/19 05:33:14;;;;;;;19.30;10.83;;;;;;;17.19;69.66;100837.02;126652;1086;104156;-76
2023/09/19 05:35:43;;;;;;;22.60;10.80;;;;;;;17.26;69.21;100835.33;126607;1086;101819;-77
2023/09/19 05:38:13;;;;;;;20.47;10.73;;;;;;;17.32;69.69;100830.11;126660;1086;104271;-75
2023/09/19 05:40:46;;;;;;;19.23;11.03;;;;;;;17.40;69.53;100827.56;126783;1086;102120;-79
2023/09/19 05:43:16;;;;;;;21.57;11.50;;;;;;;17.47;69.39;100829.44;126896;1086;101979;-78
2023/09/19 05:45:56;;;;;;;27.47;11.43;;;;;;;17.55;69.44;100829.53;127172;1086;103113;-79
2023/09/19 05:48:26;;;;;;;23.77;11.20;;;;;;;17.59;69.24;100834.89;128315;1086;101204;-81
2023/09/19 05:51:10;;;;;;;21.40;10.87;;;;;;;17.65;69.36;100831.40;128265;1085;102229;-77
2023/09/19 05:53:43;;;;;;;19.77;10.47;;;;;;;17.73;69.42;100836.80;126567;1086;104188;-76
2023/09/19 05:56:24;;;;;;;21.57;10.50;;;;;;;17.82;69.32;100839.56;127257;1086;104158;-78
2023/09/19 05:58:55;;;;;;;24.65;10.65;;;;;;;17.89;69.27;100830.84;126867;1086;102006;-80
2023/09/19 06:01:27;;;;;;;24.70;10.93;;;;;;;17.98;69.20;100830.03;126912;1086;104184;-80
2023/09/19 06:04:02;;;;;;;22.67;11.30;;;;;;;18.04;68.77;100832.75;128260;1085;101991;-77
2023/09/19 06:06:38;;;;;;;19.77;9.90;;;;;;;18.10;69.02;100829.28;127681;1086;101925;-83
2023/09/19 06:09:09;;;;;;;22.77;10.43;;;;;;;18.17;68.86;100823.16;129069;1085;101762;-80
2023/09/19 06:11:39;;;;;;;21.53;10.33;;;;;;;18.19;68.53;100809.90;127916;1086;101973;-81
2023/09/19 06:21:26;;;;;;;18.30;8.03;;;;;;;18.47;68.81;100819.00;128412;1085;104229;-81
2023/09/19 06:24:00;;;;;;;14.33;7.77;;;;;;;18.55;68.67;100819.94;127406;1086;104324;-80
2023/09/19 06:26:32;;;;;;;15.10;7.50;;;;;;;18.61;68.44;100817.33;127114;1086;101985;-82
2023/09/19 06:29:09;;;;;;;13.65;7.30;;;;;;;18.68;68.96;100816.52;127825;1086;101875;-76
2023/09/19 06:31:51;;;;;;;14.87;7.70;;;;;;;18.78;68.26;100822.78;126497;1086;103552;-79
2023/09/19 06:34:38;;;;;;;14.50;6.93;;;;;;;18.86;68.77;100817.55;128096;1085;102067;-80
2023/09/19 06:37:17;;;;;;;14.65;7.30;;;;;;;18.94;68.37;100821.14;126864;1086;104267;-78
2023/09/19 06:40:25;;;;;;;13.27;7.23;;;;;;;19.06;68.01;100822.09;128189;1085;111397;-80
2023/09/19 06:42:58;;;;;;;16.00;7.57;;;;;;;19.13;67.97;100829.23;127498;1086;104151;-81
2023/09/19 06:45:31;;;;;;;13.10;7.30;;;;;;;19.21;67.56;100814.20;127933;1084;102248;-81
2023/09/19 06:51:31;;;;;;;15.60;7.97;;;;;;;19.42;67.48;100816.09;128863;1085;102040;-81
2023/09/19 06:54:35;;;;;;;16.40;7.47;;;;;;;19.52;66.77;100817.00;128260;1086;101871;-78
2023/09/19 06:57:19;;;;;;;10.70;6.13;;;;;;;19.65;66.44;100813.52;127504;1089;104194;-80
2023/09/19 07:00:15;;;;;;;14.83;6.87;;;;;;;19.79;67.30;100802.03;127886;1089;101885;-83
2023/09/19 07:03:01;;;;;;;10.77;6.57;;;;;;;19.96;66.79;100799.41;128375;1085;102850;-78
2023/09/19 07:05:56;;;;;;;9.73;5.70;;;;;;;20.11;66.61;100802.98;129248;1085;101436;-79
2023/09/19 07:08:26;;;;;;;16.17;6.27;;;;;;;20.28;65.39;100794.13;128468;1086;101530;-80
2023/09/19 07:11:03;;;;;;;11.93;6.37;;;;;;;20.42;64.45;100787.02;127917;1086;101870;-76
2023/09/19 07:13:46;;;;;;;11.33;6.13;;;;;;;20.61;65.04;100787.88;126964;1086;104249;-81
2023/09/19 07:16:49;;;;;;;;;;;;;;;;;;;;;
2023/09/19 07:20:07;;;;;;;;;;;;;;;;;;;;;
2023/09/19 07:22:59;;;;;;;10.27;5.30;;;;;;;21.28;63.09;100772.63;128536;1085;101756;-80
2023/09/19 07:25:49;;;;;;;9.37;5.70;;;;;;;21.45;63.11;100745.87;127600;1086;104155;-81
2023/09/19 07:28:36;;;;;;;11.60;5.50;;;;;;;21.64;62.73;100741.34;127531;1086;102077;-84
2023/09/19 07:38:21;;;;;;;;;;;;;;;22.29;61.12;100742.66;127737;1086;101843;-77
2023/09/19 07:41:22;;;;;;;9.37;5.20;;;;;;;22.44;60.67;100737.22;127312;1086;104225;-77
2023/09/19 07:47:09;;;;;;;11.73;5.40;;;;;;;22.77;59.33;100729.75;127563;1085;102236;-77
2023/09/19 07:49:42;;;;;;;9.23;5.80;;;;;;;22.94;59.53;100735.78;126465;1086;104120;-78
2023/09/19 07:52:17;;;;;;;12.20;5.67;;;;;;;23.11;59.22;100730.27;127120;1086;104251;-78
2023/09/19 07:55:16;;;;;;;12.20;5.60;;;;;;;23.31;59.00;100724.66;126549;1086;101866;-76
2023/09/19 07:57:46;;;;;;;12.67;5.30;;;;;;;23.45;59.01;100729.83;126366;1086;104216;-78
2023/09/19 08:00:25;;;;;;;10.70;5.33;;;;;;;23.63;57.67;100736.70;127657;1085;104245;-80
2023/09/19 08:03:06;;;;;;;;;;;;;;;;;;;;;
2023/09/19 08:05:36;;;;;;;9.70;5.05;;;;;;;23.76;57.78;100737.39;126684;1086;101854;-82
2023/09/19 08:08:08;;;;;;;12.07;5.53;;;;;;;23.89;56.56;100727.43;126945;1086;102469;-83
2023/09/19 08:10:41;;;;;;;8.90;5.20;;;;;;;23.97;56.42;100722.82;127300;1086;104158;-82
2023/09/19 08:13:26;;;;;;;9.63;5.30;;;;;;;24.02;55.63;100728.11;127711;1086;109238;-81
2023/09/19 08:15:54;;;;;;;;;;;;;;;24.01;55.18;100719.20;128336;1085;101789;-83
2023/09/19 08:18:26;;;;;;;10.67;5.17;;;;;;;24.06;55.35;100713.76;127232;1086;104219;-78
2023/09/19 08:21:00;;;;;;;11.53;5.23;;;;;;;24.13;54.84;100719.89;128432;1085;101797;-77
2023/09/19 08:23:31;;;;;;;15.95;5.65;;;;;;;24.15;54.38;100704.66;126821;1086;119151;-75
2023/09/19 08:26:03;;;;;;;10.33;5.47;;;;;;;24.20;53.76;100710.84;126561;1086;102036;-76
2023/09/19 08:28:33;;;;;;;11.00;5.60;;;;;;;24.28;53.48;100708.91;127710;1086;102276;-76
2023/09/19 08:31:04;;;;;;;9.97;5.30;;;;;;;24.26;52.01;100702.66;126288;1086;102138;-73
2023/09/19 08:33:38;;;;;;;9.70;5.23;;;;;;;24.33;52.29;100704.33;126312;1086;101816;-77
2023/09/19 08:36:24;;;;;;;10.37;5.30;;;;;;;24.40;52.59;100706.01;126436;1086;101982;-75
2023/09/19 08:38:56;;;;;;;7.73;4.70;;;;;;;24.40;51.98;100708.69;127564;1086;104169;-76
2023/09/19 08:41:32;;;;;;;10.43;4.77;;;;;;;24.38;51.34;100709.61;127745;1086;101908;-78
2023/09/19 08:44:09;;;;;;;6.03;4.57;;;;;;;24.29;51.16;100705.29;126758;1086;110679;-75
2023/09/19 08:46:44;;;;;;;6.60;4.40;;;;;;;24.25;49.76;100695.55;127056;1086;104172;-76
2023/09/19 08:49:31;;;;;;;7.53;4.63;;;;;;;24.18;50.51;100689.42;126382;1086;101896;-75
2023/09/19 08:52:10;;;;;;;8.57;4.50;;;;;;;24.20;50.21;100689.40;126462;1086;101960;-77
2023/09/19 08:54:46;;;;;;;8.83;4.50;;;;;;;24.33;50.35;100695.41;126509;1086;102067;-78
2023/09/19 08:57:34;;;;;;;8.30;4.30;;;;;;;24.44;49.37;100676.45;126820;1086;102116;-78
2023/09/19 09:00:10;;;;;;;9.03;4.67;;;;;;;24.60;49.15;100680.63;126885;1086;104312;-77
2023/09/19 09:02:49;;;;;;;11.10;4.70;;;;;;;24.79;48.28;100683.81;127299;1086;101906;-80
2023/09/19 09:05:23;;;;;;;10.47;4.77;;;;;;;24.91;48.12;100677.33;126796;1086;104162;-75
2023/09/19 09:08:07;;;;;;;11.12;4.62;;;;;;;25.04;48.15;100677.94;127693;1086;101983;-77
2023/09/19 09:10:42;;;;;;;8.90;4.80;;;;;;;25.20;47.67;100678.52;128239;1085;101788;-77
2023/09/19 09:13:27;;;;;;;8.13;4.87;;;;;;;25.41;47.30;100680.73;128142;1086;101974;-77
2023/09/19 09:16:04;;;;;;;8.80;4.37;;;;;;;25.50;46.49;100679.64;128665;1085;101786;-78
2023/09/19 09:18:44;;;;;;;6.57;4.30;;;;;;;25.64;46.71;100679.31;127763;1086;101836;-76
2023/09/19 09:21:38;;;;;;;10.80;4.70;;;;;;;25.77;46.02;100678.11;127557;1085;104232;-78
2023/09/19 09:24:33;;;;;;;5.97;4.23;;;;;;;25.82;46.22;100672.59;127139;1086;101787;-79
2023/09/19 09:27:18;;;;;;;10.53;4.40;;;;;;;25.89;45.21;100659.91;128799;1084;101893;-80
2023/09/19 09:29:58;;;;;;;8.53;4.40;;;;;;;25.92;45.25;100660.70;127560;1086;102328;-79
2023/09/19 09:32:36;;;;;;;6.00;3.90;;;;;;;25.89;44.79;100667.97;128123;1086;101653;-80
2023/09/19 09:35:21;;;;;;;5.93;3.80;;;;;;;25.87;44.44;100659.04;128716;1085;104161;-80
2023/09/19 09:38:08;;;;;;;5.63;3.80;;;;;;;25.83;43.67;100660.93;127903;1086;101771;-78
2023/09/19 09:41:00;;;;;;;7.23;4.13;;;;;;;25.96;43.38;100658.80;128297;1085;104194;-76
2023/09/19 09:43:41;;;;;;;7.80;3.90;;;;;;;26.04;41.19;100651.48;127860;1086;102199;-76
2023/09/19 09:49:19;;;;;;;8.97;4.00;;;;;;;26.15;42.31;100649.39;126260;1086;104294;-74
2023/09/19 09:52:16;;;;;;;7.27;3.90;;;;;;;26.21;41.25;100642.07;126270;1085;101908;-73
2023/09/19 09:55:01;;;;;;;8.47;3.77;;;;;;;26.27;41.13;100641.91;127205;1086;101840;-79
2023/09/19 09:57:34;;;;;;;6.07;3.53;;;;;;;26.26;41.09;100632.09;126366;1085;104275;-76
2023/09/19 10:00:20;;;;;;;7.87;3.80;;;;;;;26.25;40.99;100635.70;127443;1086;104219;-75
2023/09/19 10:02:49;;;;;;;7.65;4.05;;;;;;;26.29;41.06;100629.32;127981;1086;102094;-81
2023/09/19 10:05:28;;;;;;;5.77;3.90;;;;;;;26.34;40.58;100632.75;127523;1086;104114;-77
2023/09/19 10:12:30;;;;;;;;;;;;;;;;;;;;;
2023/09/19 10:15:46;;;;;;;6.73;3.57;;;;;;;26.50;39.35;100620.62;128169;1086;102031;-79
2023/09/19 10:18:23;;;;;;;10.97;4.00;;;;;;;26.49;39.26;100626.95;126387;1086;102682;-77
2023/09/19 10:20:52;;;;;;;6.00;3.73;;;;;;;26.49;38.88;100600.05;126455;1086;104249;-79
2023/09/19 10:23:23;;;;;;;6.27;3.67;;;;;;;26.51;37.90;100608.95;126724;1085;104229;-81
2023/09/19 10:25:57;;;;;;;9.00;3.87;;;;;;;26.61;37.52;100605.98;127306;1086;104194;-77
2023/09/19 10:28:32;;;;;;;10.97;3.60;;;;;;;26.67;38.04;100613.91;126443;1086;101864;-78
2023/09/19 10:31:02;;;;;;;8.47;4.27;;;;;;;26.78;38.02;100609.09;127594;1086;104182;-79
2023/09/19 10:33:41;;;;;;;8.80;3.80;;;;;;;26.91;37.64;100601.52;126425;1086;104212;-80
2023/09/19 10:36:15;;;;;;;8.70;3.60;;;;;;;27.00;37.22;100593.16;127646;1086;104226;-80
2023/09/19 10:38:49;;;;;;;6.17;3.50;;;;;;;27.06;37.29;100594.79;126907;1086;104155;-80
2023/09/19 10:41:31;;;;;;;5.57;3.40;;;;;;;27.11;36.16;100590.13;126646;1086;101922;-78
2023/09/19 10:44:06;;;;;;;12.27;4.17;;;;;;;27.15;36.90;100583.73;127406;1086;104085;-78
2023/09/19 10:46:41;;;;;;;9.00;3.70;;;;;;;27.21;36.59;100594.31;126546;1086;104175;-77
2023/09/19 10:49:13;;;;;;;11.30;4.27;;;;;;;27.21;36.26;100594.31;126503;1086;101856;-79
2023/09/19 10:51:49;;;;;;;3.70;3.10;;;;;;;27.15;36.41;100578.34;127561;1085;101934;-79
2023/09/19 10:54:28;;;;;;;7.30;3.53;;;;;;;27.11;35.58;100578.48;128170;1085;101796;-84
2023/09/19 10:57:05;;;;;;;6.90;3.50;;;;;;;27.05;35.56;100571.47;127576;1086;104210;-77
2023/09/19 11:00:21;;;;;;;8.45;3.50;;;;;;;27.02;34.99;100567.09;127951;1086;101991;-78
2023/09/19 11:03:20;;;;;;;6.37;3.63;;;;;;;27.01;34.96;100559.06;127482;1086;104160;-81
2023/09/19 11:06:10;;;;;;;5.17;3.20;;;;;;;27.03;35.25;100559.88;128074;1085;102308;-80
2023/09/19 11:09:21;;;;;;;6.10;3.57;;;;;;;27.04;34.52;100550.88;128213;1084;104179;-81
2023/09/19 11:11:57;;;;;;;10.10;3.73;;;;;;;27.17;34.37;100554.05;126413;1086;102297;-75
2023/09/19 11:14:46;;;;;;;11.00;4.23;;;;;;;27.28;35.24;100548.31;126699;1085;104150;-78
2023/09/19 11:17:52;;;;;;;8.40;3.93;;;;;;;27.31;35.44;100549.13;127700;1086;101762;-82
2023/09/19 11:20:43;;;;;;;9.07;3.83;;;;;;;27.33;35.06;100540.98;127426;1086;101952;-81
2023/09/19 11:24:05;;;;;;;6.90;3.80;;;;;;;27.33;35.05;100540.98;127504;1086;104155;-82
2023/09/19 11:26:47;;;;;;;8.33;4.10;;;;;;;27.47;35.07;100546.79;127358;1086;102610;-80
2023/09/19 11:29:42;;;;;;;8.17;3.90;;;;;;;27.57;35.47;100523.12;126739;1086;101928;-83
2023/09/19 11:32:19;;;;;;;10.17;3.90;;;;;;;27.58;34.62;100523.07;128219;1085;101696;-77
2023/09/19 11:35:14;;;;;;;7.50;3.90;;;;;;;27.61;34.82;100528.36;127679;1086;104675;-80
2023/09/19 11:38:15;;;;;;;9.47;3.87;;;;;;;27.57;34.87;100510.52;128359;1086;107886;-80
2023/09/19 11:41:25;;;;;;;8.13;4.03;;;;;;;27.65;34.62;100517.47;128019;1086;101774;-81
2023/09/19 11:44:52;;;;;;;11.47;3.57;;;;;;;27.68;34.65;100520.06;127935;1089;104203;-82
2023/09/19 11:47:35;;;;;;;8.80;3.70;;;;;;;27.72;34.39;100509.11;127369;1086;104191;-81
2023/09/19 11:50:43;;;;;;;8.43;4.10;;;;;;;27.71;34.38;100495.69;128095;1085;104162;-79
2023/09/19 11:53:32;;;;;;;7.63;3.80;;;;;;;27.85;34.31;100497.89;127069;1089;101846;-77
2023/09/19 11:56:18;;;;;;;8.40;3.77;;;;;;;27.90;34.36;100495.91;126354;1086;102119;-77
2023/09/19 11:59:30;;;;;;;9.47;4.00;;;;;;;27.95;34.39;100494.81;127554;1085;104162;-79
2023/09/19 12:02:16;;;;;;;7.33;4.10;;;;;;;27.96;34.23;100487.63;126451;1086;104159;-75
2023/09/19 12:05:10;;;;;;;5.47;3.43;;;;;;;27.95;34.22;100486.72;126469;1086;104232;-77
2023/09/19 12:07:51;;;;;;;7.60;3.60;;;;;;;27.93;33.89;100480.48;127181;1086;102145;-79
2023/09/19 12:10:32;;;;;;;9.63;3.90;;;;;;;27.90;33.62;100483.29;128130;1085;101752;-80
2023/09/19 12:13:06;;;;;;;7.17;3.70;;;;;;;27.91;33.37;100482.37;126962;1086;102872;-74
2023/09/19 12:15:45;;;;;;;6.40;3.40;;;;;;;27.92;33.54;100483.23;126450;1086;102274;-76
2023/09/19 12:18:36;;;;;;;7.30;3.77;;;;;;;27.89;33.42;100484.25;127581;1086;102079;-77